createdAt,value
2019-06-27T00:00:45.208Z,0
2019-06-27T00:01:55.172Z,0
2019-06-27T00:03:05.128Z,0
2019-06-27T00:04:14.591Z,0
2019-06-27T00:05:24.554Z,0
2019-06-27T00:06:34.521Z,0
2019-06-27T00:07:44.488Z,0
2019-06-27T00:08:53.697Z,0
2019-06-27T00:10:03.676Z,0
2019-06-27T00:11:13.459Z,0
2019-06-27T00:12:22.927Z,0
2019-06-27T00:13:32.911Z,0
2019-06-27T00:14:42.644Z,0
2019-06-27T00:15:52.613Z,0
2019-06-27T00:17:02.632Z,0
2019-06-27T00:18:12.609Z,0
2019-06-27T00:19:22.325Z,0
2019-06-27T00:20:32.045Z,0
2019-06-27T00:21:41.742Z,0
2019-06-27T00:22:51.444Z,0
2019-06-27T00:24:01.392Z,0
2019-06-27T00:25:11.575Z,0
2019-06-27T00:26:21.283Z,0
2019-06-27T00:27:31.299Z,0
2019-06-27T00:28:41.267Z,0
2019-06-27T00:29:51.225Z,0
2019-06-27T00:31:00.923Z,0
2019-06-27T00:32:10.632Z,0
2019-06-27T00:33:20.596Z,0
2019-06-27T00:34:30.306Z,0
2019-06-27T00:35:39.786Z,0
2019-06-27T00:36:49.765Z,0
2019-06-27T00:37:59.465Z,0
2019-06-27T00:39:08.938Z,0
2019-06-27T00:40:18.895Z,0
2019-06-27T00:41:28.618Z,0
2019-06-27T00:42:38.580Z,0
2019-06-27T00:43:48.549Z,0
2019-06-27T00:44:58.515Z,0
2019-06-27T00:46:08.308Z,0
2019-06-27T00:47:18.008Z,0
2019-06-27T00:48:27.967Z,0
2019-06-27T00:49:37.918Z,0
2019-06-27T00:50:47.629Z,0
2019-06-27T00:51:57.350Z,0
2019-06-27T00:53:07.057Z,0
2019-06-27T00:54:16.757Z,0
2019-06-27T00:55:26.480Z,0
2019-06-27T00:56:36.439Z,0
2019-06-27T00:57:46.440Z,0
2019-06-27T00:58:56.406Z,0
2019-06-27T01:00:06.364Z,0
2019-06-27T01:01:16.321Z,0
2019-06-27T01:02:26.283Z,0
2019-06-27T01:03:36.229Z,0
2019-06-27T01:04:46.201Z,0
2019-06-27T01:05:56.173Z,0
2019-06-27T01:07:06.144Z,0
2019-06-27T01:08:15.877Z,0
2019-06-27T01:09:25.860Z,0
2019-06-27T01:10:35.572Z,0
2019-06-27T01:11:45.283Z,0
2019-06-27T01:12:54.734Z,0
2019-06-27T01:14:04.222Z,0
2019-06-27T01:15:14.191Z,0
2019-06-27T01:16:24.197Z,0
2019-06-27T01:17:33.684Z,0
2019-06-27T01:18:43.819Z,0
2019-06-27T01:19:53.523Z,0
2019-06-27T01:21:03.489Z,0
2019-06-27T01:22:12.929Z,0
2019-06-27T01:23:22.210Z,0
2019-06-27T01:24:31.921Z,0
2019-06-27T01:25:41.634Z,0
2019-06-27T01:26:51.588Z,0
2019-06-27T01:28:01.587Z,0
2019-06-27T01:29:11.637Z,0
2019-06-27T01:30:21.334Z,0
2019-06-27T01:31:31.063Z,0
2019-06-27T01:32:41.032Z,0
2019-06-27T01:33:50.747Z,0
2019-06-27T01:35:04.014Z,0
2019-06-27T01:36:14.295Z,0
2019-06-27T01:37:24.256Z,0
2019-06-27T01:38:34.223Z,0
2019-06-27T01:39:43.946Z,0
2019-06-27T01:40:53.999Z,0
2019-06-27T01:42:03.755Z,0
2019-06-27T01:43:13.714Z,0
2019-06-27T01:44:23.671Z,0
2019-06-27T01:45:33.658Z,0
2019-06-27T01:46:43.651Z,0
2019-06-27T01:47:53.633Z,0
2019-06-27T01:49:03.369Z,0
2019-06-27T01:50:13.329Z,0
2019-06-27T01:51:23.271Z,0
2019-06-27T01:52:33.241Z,0
2019-06-27T01:53:42.958Z,0
2019-06-27T01:54:52.926Z,0
2019-06-27T01:56:02.624Z,0
2019-06-27T01:57:12.594Z,0
2019-06-27T01:58:22.311Z,0
2019-06-27T01:59:32.022Z,0
2019-06-27T02:00:41.869Z,0
2019-06-27T02:01:51.835Z,0
2019-06-27T02:03:01.835Z,0
2019-06-27T02:04:11.553Z,0
2019-06-27T02:05:21.551Z,0
2019-06-27T02:06:31.311Z,0
2019-06-27T02:07:41.146Z,0
2019-06-27T02:08:50.908Z,0
2019-06-27T02:10:00.619Z,0
2019-06-27T02:11:10.313Z,0
2019-06-27T02:12:20.257Z,0
2019-06-27T02:13:30.013Z,0
2019-06-27T02:14:39.982Z,0
2019-06-27T02:15:49.708Z,0
2019-06-27T02:16:59.690Z,0
2019-06-27T02:18:09.388Z,0
2019-06-27T02:19:19.334Z,0
2019-06-27T02:20:28.791Z,0
2019-06-27T02:21:38.501Z,0
2019-06-27T02:22:48.208Z,0
2019-06-27T02:23:57.921Z,0
2019-06-27T02:25:07.636Z,0
2019-06-27T02:26:17.378Z,0
2019-06-27T02:27:27.336Z,0
2019-06-27T02:28:37.296Z,0
2019-06-27T02:29:47.010Z,0
2019-06-27T02:30:56.820Z,0
2019-06-27T02:32:06.820Z,0
2019-06-27T02:33:16.813Z,0
2019-06-27T02:34:26.546Z,0
2019-06-27T02:35:36.325Z,0
2019-06-27T02:36:46.062Z,0
2019-06-27T02:37:55.826Z,0
2019-06-27T02:39:05.797Z,5
2019-06-27T02:40:15.307Z,5
2019-06-27T02:41:25.296Z,5
2019-06-27T02:42:35.266Z,5
2019-06-27T02:43:45.009Z,5
2019-06-27T02:44:55.000Z,5
2019-06-27T02:46:04.975Z,5
2019-06-27T02:47:15.012Z,5
2019-06-27T02:48:24.818Z,10
2019-06-27T02:49:34.534Z,10
2019-06-27T02:50:44.302Z,10
2019-06-27T02:51:54.069Z,10
2019-06-27T02:53:04.055Z,10
2019-06-27T02:54:13.800Z,15
2019-06-27T02:55:23.539Z,15
2019-06-27T02:56:33.055Z,15
2019-06-27T02:57:43.041Z,15
2019-06-27T02:58:53.010Z,15
2019-06-27T03:00:03.017Z,20
2019-06-27T03:01:12.741Z,20
2019-06-27T03:02:22.464Z,20
2019-06-27T03:03:32.168Z,20
2019-06-27T03:04:42.158Z,20
2019-06-27T03:05:52.192Z,25
2019-06-27T03:07:02.171Z,25
2019-06-27T03:08:12.150Z,25
2019-06-27T03:09:21.870Z,25
2019-06-27T03:10:31.888Z,30
2019-06-27T03:11:41.858Z,30
2019-06-27T03:12:51.334Z,30
2019-06-27T03:14:01.056Z,35
2019-06-27T03:15:11.045Z,35
2019-06-27T03:16:20.765Z,35
2019-06-27T03:17:29.973Z,35
2019-06-27T03:18:39.945Z,35
2019-06-27T03:19:49.910Z,40
2019-06-27T03:20:59.687Z,40
2019-06-27T03:22:14.693Z,40
2019-06-27T03:23:24.400Z,40
2019-06-27T03:24:34.133Z,40
2019-06-27T03:25:44.099Z,40
2019-06-27T03:26:54.062Z,45
2019-06-27T03:28:04.031Z,45
2019-06-27T03:29:13.506Z,40
2019-06-27T03:30:23.594Z,40
2019-06-27T03:31:33.630Z,40
2019-06-27T03:32:43.480Z,40
2019-06-27T03:33:53.722Z,40
2019-06-27T03:35:03.764Z,40
2019-06-27T03:36:13.841Z,45
2019-06-27T03:37:23.859Z,45
2019-06-27T03:38:33.829Z,45
2019-06-27T03:39:43.323Z,45
2019-06-27T03:40:53.067Z,45
2019-06-27T03:42:02.791Z,45
2019-06-27T03:43:12.290Z,50
2019-06-27T03:44:22.010Z,55
2019-06-27T03:45:31.738Z,55
2019-06-27T03:46:41.736Z,55
2019-06-27T03:47:51.721Z,55
2019-06-27T03:49:01.746Z,55
2019-06-27T03:50:11.810Z,55
2019-06-27T03:51:21.784Z,55
2019-06-27T03:52:31.799Z,60
2019-06-27T03:53:41.780Z,65
2019-06-27T03:54:51.495Z,65
2019-06-27T03:56:01.454Z,70
2019-06-27T03:57:11.177Z,80
2019-06-27T03:58:21.179Z,80
2019-06-27T03:59:31.164Z,90
2019-06-27T04:00:41.130Z,95
2019-06-27T04:01:51.141Z,95
2019-06-27T04:03:01.148Z,95
2019-06-27T04:04:11.126Z,95
2019-06-27T04:05:20.869Z,95
2019-06-27T04:06:30.876Z,100
2019-06-27T04:07:40.347Z,105
2019-06-27T04:08:50.324Z,105
2019-06-27T04:09:59.817Z,110
2019-06-27T04:11:09.537Z,105
2019-06-27T04:12:19.522Z,100
2019-06-27T04:13:29.284Z,105
2019-06-27T04:14:39.285Z,105
2019-06-27T04:15:49.285Z,110
2019-06-27T04:16:59.367Z,115
2019-06-27T04:18:09.338Z,115
2019-06-27T04:19:19.169Z,120
2019-06-27T04:20:29.147Z,125
2019-06-27T04:21:39.128Z,125
2019-06-27T04:22:49.104Z,125
2019-06-27T04:23:59.079Z,130
2019-06-27T04:25:08.563Z,130
2019-06-27T04:26:18.536Z,125
2019-06-27T04:27:28.496Z,125
2019-06-27T04:28:38.479Z,125
2019-06-27T04:29:48.454Z,125
2019-06-27T04:30:58.217Z,125
2019-06-27T04:32:08.200Z,130
2019-06-27T04:33:18.222Z,135
2019-06-27T04:34:29.851Z,135
2019-06-27T04:35:39.326Z,140
2019-06-27T04:36:49.296Z,140
2019-06-27T04:37:59.045Z,140
2019-06-27T04:39:08.780Z,140
2019-06-27T04:40:18.758Z,140
2019-06-27T04:41:28.739Z,145
2019-06-27T04:42:38.706Z,145
2019-06-27T04:43:48.452Z,145
2019-06-27T04:44:58.464Z,150
2019-06-27T04:46:08.171Z,160
2019-06-27T04:47:17.873Z,170
2019-06-27T04:48:27.867Z,165
2019-06-27T04:49:37.603Z,165
2019-06-27T04:50:47.623Z,170
2019-06-27T04:51:57.669Z,160
2019-06-27T04:53:07.129Z,155
2019-06-27T04:54:16.594Z,160
2019-06-27T04:55:26.314Z,155
2019-06-27T04:56:36.052Z,150
2019-06-27T04:57:45.815Z,155
2019-06-27T04:58:55.734Z,155
2019-06-27T05:00:05.717Z,150
2019-06-27T05:01:15.694Z,150
2019-06-27T05:02:29.318Z,150
2019-06-27T05:03:39.950Z,155
2019-06-27T05:04:49.901Z,155
2019-06-27T05:05:59.607Z,150
2019-06-27T05:07:09.672Z,150
2019-06-27T05:08:23.899Z,160
2019-06-27T05:09:33.956Z,155
2019-06-27T05:10:43.928Z,155
2019-06-27T05:11:53.639Z,160
2019-06-27T05:13:03.649Z,165
2019-06-27T05:14:13.113Z,165
2019-06-27T05:15:22.832Z,175
2019-06-27T05:16:32.542Z,175
2019-06-27T05:17:42.544Z,170
2019-06-27T05:18:52.255Z,165
2019-06-27T05:20:05.644Z,165
2019-06-27T05:21:15.617Z,165
2019-06-27T05:22:25.577Z,175
2019-06-27T05:23:35.543Z,190
2019-06-27T05:24:45.553Z,190
2019-06-27T05:25:55.293Z,185
2019-06-27T05:27:05.024Z,185
2019-06-27T05:28:14.487Z,175
2019-06-27T05:29:24.446Z,175
2019-06-27T05:30:34.430Z,165
2019-06-27T05:31:44.189Z,160
2019-06-27T05:32:54.159Z,155
2019-06-27T05:34:04.156Z,155
2019-06-27T05:35:13.891Z,160
2019-06-27T05:36:23.856Z,165
2019-06-27T05:37:33.789Z,165
2019-06-27T05:38:43.541Z,160
2019-06-27T05:39:53.517Z,160
2019-06-27T05:41:02.966Z,150
2019-06-27T05:42:12.921Z,155
2019-06-27T05:43:22.618Z,155
2019-06-27T05:44:32.109Z,155
2019-06-27T05:45:42.129Z,160
2019-06-27T05:46:51.846Z,160
2019-06-27T05:48:01.827Z,160
2019-06-27T05:49:11.781Z,165
2019-06-27T05:50:21.748Z,165
2019-06-27T05:51:31.842Z,160
2019-06-27T05:52:41.573Z,160
2019-06-27T05:53:55.251Z,160
2019-06-27T05:55:05.237Z,160
2019-06-27T05:56:14.966Z,160
2019-06-27T05:57:24.972Z,165
2019-06-27T05:58:35.071Z,160
2019-06-27T05:59:44.806Z,160
2019-06-27T06:00:54.866Z,160
2019-06-27T06:02:04.848Z,160
2019-06-27T06:03:14.804Z,160
2019-06-27T06:04:28.766Z,160
2019-06-27T06:05:38.474Z,160
2019-06-27T06:06:48.438Z,160
2019-06-27T06:07:58.394Z,160
2019-06-27T06:09:08.363Z,160
2019-06-27T06:10:18.320Z,160
2019-06-27T06:11:28.364Z,160
2019-06-27T06:12:38.086Z,160
2019-06-27T06:13:48.076Z,160
2019-06-27T06:14:58.038Z,160
2019-06-27T06:16:10.402Z,165
2019-06-27T06:17:20.374Z,165
2019-06-27T06:18:30.330Z,170
2019-06-27T06:19:40.037Z,170
2019-06-27T06:20:49.771Z,170
2019-06-27T06:21:59.748Z,175
2019-06-27T06:23:09.703Z,175
2019-06-27T06:24:19.437Z,180
2019-06-27T06:25:29.209Z,170
2019-06-27T06:26:39.159Z,180
2019-06-27T06:27:48.883Z,180
2019-06-27T06:28:58.870Z,180
2019-06-27T06:30:08.625Z,180
2019-06-27T06:31:18.668Z,185
2019-06-27T06:32:28.383Z,185
2019-06-27T06:33:38.141Z,185
2019-06-27T06:34:47.848Z,185
2019-06-27T06:35:57.814Z,190
2019-06-27T06:37:10.555Z,190
2019-06-27T06:38:20.804Z,190
2019-06-27T06:39:30.272Z,190
2019-06-27T06:40:39.986Z,190
2019-06-27T06:41:49.952Z,190
2019-06-27T06:43:06.412Z,190
2019-06-27T06:44:16.472Z,185
2019-06-27T06:45:26.451Z,185
2019-06-27T06:46:36.411Z,185
2019-06-27T06:47:46.385Z,185
2019-06-27T06:48:56.110Z,185
2019-06-27T06:50:06.088Z,185
2019-06-27T06:51:15.832Z,185
2019-06-27T06:52:25.866Z,185
2019-06-27T06:53:35.582Z,185
2019-06-27T06:54:45.543Z,185
2019-06-27T06:55:55.249Z,185
2019-06-27T06:57:05.142Z,185
2019-06-27T06:58:15.144Z,185
2019-06-27T06:59:25.121Z,185
2019-06-27T07:00:35.186Z,185
2019-06-27T07:01:48.058Z,185
2019-06-27T07:02:57.884Z,185
2019-06-27T07:04:07.880Z,185
2019-06-27T07:05:18.069Z,190
2019-06-27T07:06:28.086Z,190
2019-06-27T07:07:38.068Z,195
2019-06-27T07:08:47.813Z,195
2019-06-27T07:09:57.766Z,195
2019-06-27T07:11:07.778Z,200
2019-06-27T07:12:17.546Z,200
2019-06-27T07:13:27.315Z,200
2019-06-27T07:14:37.271Z,200
2019-06-27T07:15:47.012Z,195
2019-06-27T07:16:57.060Z,195
2019-06-27T07:18:06.777Z,195
2019-06-27T07:19:16.740Z,195
2019-06-27T07:20:26.754Z,190
2019-06-27T07:21:36.752Z,190
2019-06-27T07:22:46.698Z,190
2019-06-27T07:23:56.830Z,185
2019-06-27T07:25:06.949Z,185
2019-06-27T07:26:16.682Z,185
2019-06-27T07:27:26.416Z,185
2019-06-27T07:28:36.143Z,185
2019-06-27T07:29:46.142Z,185
2019-06-27T07:30:56.139Z,185
2019-06-27T07:32:05.855Z,190
2019-06-27T07:33:19.456Z,190
2019-06-27T07:34:29.427Z,190
2019-06-27T07:35:39.156Z,190
2019-06-27T07:36:48.870Z,185
2019-06-27T07:37:58.900Z,185
2019-06-27T07:39:09.068Z,190
2019-06-27T07:40:18.806Z,190
2019-06-27T07:41:28.811Z,190
2019-06-27T07:42:38.304Z,195
2019-06-27T07:43:48.278Z,190
2019-06-27T07:44:58.273Z,190
2019-06-27T07:46:23.954Z,190
2019-06-27T07:47:34.698Z,190
2019-06-27T07:48:44.398Z,190
2019-06-27T07:49:54.344Z,190
2019-06-27T07:51:04.301Z,190
2019-06-27T07:52:13.762Z,190
2019-06-27T07:53:23.478Z,190
2019-06-27T07:54:33.455Z,190
2019-06-27T07:55:43.583Z,190
2019-06-27T07:56:55.913Z,190
2019-06-27T07:58:05.869Z,190
2019-06-27T07:59:15.865Z,190
2019-06-27T08:00:25.599Z,190
2019-06-27T08:01:44.932Z,190
2019-06-27T08:02:54.862Z,195
2019-06-27T08:04:04.593Z,195
2019-06-27T08:05:14.678Z,195
2019-06-27T08:06:24.389Z,195
2019-06-27T08:07:34.111Z,195
2019-06-27T08:08:44.078Z,195
2019-06-27T08:09:53.832Z,195
2019-06-27T08:11:03.577Z,195
2019-06-27T08:12:13.541Z,195
2019-06-27T08:13:23.547Z,195
2019-06-27T08:14:33.657Z,195
2019-06-27T08:15:43.683Z,195
2019-06-27T08:16:53.694Z,195
2019-06-27T08:18:03.681Z,195
2019-06-27T08:19:13.415Z,200
2019-06-27T08:20:23.138Z,200
2019-06-27T08:21:33.105Z,200
2019-06-27T08:22:43.108Z,200
2019-06-27T08:23:53.090Z,205
2019-06-27T08:25:03.064Z,205
2019-06-27T08:26:13.044Z,205
2019-06-27T08:27:22.759Z,205
2019-06-27T08:28:32.479Z,205
2019-06-27T08:29:42.567Z,205
2019-06-27T08:30:52.303Z,205
2019-06-27T08:32:02.374Z,205
2019-06-27T08:33:12.383Z,210
2019-06-27T08:34:22.382Z,210
2019-06-27T08:35:36.008Z,210
2019-06-27T08:36:46.034Z,210
2019-06-27T08:37:56.212Z,205
2019-06-27T08:39:05.978Z,205
2019-06-27T08:40:15.945Z,205
2019-06-27T08:41:25.915Z,205
2019-06-27T08:42:35.642Z,205
2019-06-27T08:43:45.383Z,205
2019-06-27T08:44:55.349Z,205
2019-06-27T08:46:05.120Z,205
2019-06-27T08:47:15.122Z,205
2019-06-27T08:48:24.581Z,205
2019-06-27T08:49:34.564Z,205
2019-06-27T08:50:44.291Z,205
2019-06-27T08:51:54.027Z,210
2019-06-27T08:53:06.309Z,210
2019-06-27T08:54:16.075Z,215
2019-06-27T08:55:25.621Z,225
2019-06-27T08:56:35.386Z,230
2019-06-27T08:57:45.415Z,250
2019-06-27T08:58:55.388Z,265
2019-06-27T09:00:05.364Z,300
2019-06-27T09:01:15.211Z,340
2019-06-27T09:02:25.199Z,405
2019-06-27T09:03:34.909Z,430
2019-06-27T09:04:44.914Z,435
2019-06-27T09:05:54.938Z,425
2019-06-27T09:07:04.420Z,425
2019-06-27T09:08:14.126Z,425
2019-06-27T09:09:24.131Z,420
2019-06-27T09:10:33.852Z,410
2019-06-27T09:11:47.820Z,405
2019-06-27T09:12:57.843Z,405
2019-06-27T09:14:07.588Z,410
2019-06-27T09:15:17.561Z,405
2019-06-27T09:16:27.641Z,400
2019-06-27T09:17:37.637Z,405
2019-06-27T09:18:47.650Z,405
2019-06-27T09:19:57.390Z,405
2019-06-27T09:21:07.430Z,405
2019-06-27T09:22:17.152Z,410
2019-06-27T09:23:27.099Z,410
2019-06-27T09:24:36.810Z,415
2019-06-27T09:25:46.629Z,415
2019-06-27T09:26:56.610Z,420
2019-06-27T09:28:06.594Z,420
2019-06-27T09:29:16.297Z,425
2019-06-27T09:30:26.265Z,425
2019-06-27T09:31:36.233Z,425
2019-06-27T09:32:45.959Z,435
2019-06-27T09:33:55.713Z,435
2019-06-27T09:35:05.685Z,435
2019-06-27T09:36:15.655Z,435
2019-06-27T09:37:25.122Z,435
2019-06-27T09:38:35.115Z,445
2019-06-27T09:39:45.078Z,440
2019-06-27T09:40:54.793Z,445
2019-06-27T09:42:04.755Z,450
2019-06-27T09:43:14.712Z,445
2019-06-27T09:44:24.287Z,445
2019-06-27T09:45:34.146Z,450
2019-06-27T09:46:44.180Z,450
2019-06-27T09:47:54.143Z,455
2019-06-27T09:49:04.113Z,455
2019-06-27T09:50:14.095Z,460
2019-06-27T09:51:23.848Z,465
2019-06-27T09:52:33.571Z,465
2019-06-27T09:53:43.537Z,470
2019-06-27T09:54:53.251Z,470
2019-06-27T09:56:02.975Z,470
2019-06-27T09:57:12.991Z,470
2019-06-27T09:58:22.997Z,480
2019-06-27T09:59:32.703Z,480
2019-06-27T10:00:42.669Z,480
2019-06-27T10:01:52.853Z,485
2019-06-27T10:03:02.839Z,490
2019-06-27T10:04:12.827Z,495
2019-06-27T10:05:22.816Z,495
2019-06-27T10:06:35.564Z,500
2019-06-27T10:07:45.612Z,505
2019-06-27T10:08:55.605Z,510
2019-06-27T10:10:05.631Z,515
2019-06-27T10:11:15.434Z,520
2019-06-27T10:12:37.917Z,525
2019-06-27T10:13:50.899Z,535
2019-06-27T10:15:00.917Z,540
2019-06-27T10:16:10.890Z,540
2019-06-27T10:17:20.624Z,545
2019-06-27T10:18:30.667Z,550
2019-06-27T10:19:40.455Z,555
2019-06-27T10:20:50.447Z,560
2019-06-27T10:22:00.466Z,565
2019-06-27T10:23:10.239Z,570
2019-06-27T10:24:19.966Z,580
2019-06-27T10:25:30.255Z,585
2019-06-27T10:26:39.965Z,590
2019-06-27T10:27:49.939Z,595
2019-06-27T10:28:59.934Z,600
2019-06-27T10:30:10.126Z,605
2019-06-27T10:31:20.029Z,615
2019-06-27T10:32:29.509Z,625
2019-06-27T10:33:39.473Z,635
2019-06-27T10:34:49.439Z,645
2019-06-27T10:35:59.444Z,695
2019-06-27T10:37:09.206Z,780
2019-06-27T10:38:18.960Z,870
2019-06-27T10:39:28.929Z,915
2019-06-27T10:40:38.903Z,945
2019-06-27T10:41:48.641Z,955
2019-06-27T10:42:58.634Z,960
2019-06-27T10:44:08.601Z,1015
2019-06-27T10:45:18.571Z,1025
2019-06-27T10:46:28.021Z,1075
2019-06-27T10:47:37.302Z,1095
2019-06-27T10:48:47.014Z,1075
2019-06-27T10:49:57.087Z,1050
2019-06-27T10:51:07.690Z,1065
2019-06-27T10:52:17.648Z,1095
2019-06-27T10:53:27.379Z,1130
2019-06-27T10:54:37.105Z,1140
2019-06-27T10:55:46.592Z,1135
2019-06-27T10:56:56.578Z,1165
2019-06-27T10:58:06.564Z,1170
2019-06-27T10:59:16.542Z,1210
2019-06-27T11:00:26.546Z,1215
2019-06-27T11:01:36.009Z,1205
2019-06-27T11:02:45.473Z,1230
2019-06-27T11:03:55.431Z,1270
2019-06-27T11:05:05.420Z,1330
2019-06-27T11:06:14.877Z,1270
2019-06-27T11:07:24.579Z,1305
2019-06-27T11:08:34.355Z,1325
2019-06-27T11:09:44.334Z,1250
2019-06-27T11:10:54.347Z,1285
2019-06-27T11:12:04.079Z,1350
2019-06-27T11:13:14.049Z,1350
2019-06-27T11:14:26.208Z,1365
2019-06-27T11:15:35.939Z,1365
2019-06-27T11:16:45.645Z,1370
2019-06-27T11:17:55.176Z,1445
2019-06-27T11:19:05.162Z,1395
2019-06-27T11:20:17.876Z,1430
2019-06-27T11:21:27.861Z,1435
2019-06-27T11:22:37.854Z,1400
2019-06-27T11:23:47.905Z,1540
2019-06-27T11:24:57.884Z,1470
2019-06-27T11:26:11.765Z,1455
2019-06-27T11:27:21.814Z,1490
2019-06-27T11:28:31.299Z,1560
2019-06-27T11:29:41.278Z,1515
2019-06-27T11:30:51.031Z,1455
2019-06-27T11:32:01.124Z,1575
2019-06-27T11:33:11.141Z,1620
2019-06-27T11:34:24.163Z,1600
2019-06-27T11:35:33.432Z,1500
2019-06-27T11:36:46.383Z,1420
2019-06-27T11:37:56.129Z,1490
2019-06-27T11:39:06.303Z,1495
2019-06-27T11:40:19.402Z,1535
2019-06-27T11:41:29.361Z,1650
2019-06-27T11:42:39.399Z,1570
2019-06-27T11:43:49.403Z,1610
2019-06-27T11:44:59.381Z,1690
2019-06-27T11:46:11.328Z,1695
2019-06-27T11:47:21.301Z,1720
2019-06-27T11:48:31.003Z,1640
2019-06-27T11:49:40.971Z,1605
2019-06-27T11:50:51.256Z,1785
2019-06-27T11:52:01.389Z,1780
2019-06-27T11:53:11.422Z,1830
2019-06-27T11:54:20.909Z,1795
2019-06-27T11:55:30.645Z,1720
2019-06-27T11:56:40.124Z,1655
2019-06-27T11:57:50.119Z,1700
2019-06-27T11:58:59.823Z,1725
2019-06-27T12:00:09.825Z,1760
2019-06-27T12:01:19.817Z,1890
2019-06-27T12:02:29.793Z,1855
2019-06-27T12:03:55.671Z,1815
2019-06-27T12:05:05.382Z,1855
2019-06-27T12:06:15.349Z,1860
2019-06-27T12:07:24.819Z,1835
2019-06-27T12:08:34.550Z,1880
2019-06-27T12:09:44.551Z,1870
2019-06-27T12:10:54.547Z,1795
2019-06-27T12:12:04.321Z,1895
2019-06-27T12:13:14.063Z,2010
2019-06-27T12:14:24.036Z,2005
2019-06-27T12:15:34.110Z,1980
2019-06-27T12:16:44.114Z,1960
2019-06-27T12:17:53.860Z,1955
2019-06-27T12:19:03.831Z,1890
2019-06-27T12:20:13.814Z,1855
2019-06-27T12:21:23.551Z,1910
2019-06-27T12:22:33.284Z,1995
2019-06-27T12:23:43.011Z,1980
2019-06-27T12:24:52.740Z,2015
2019-06-27T12:26:02.247Z,2105
2019-06-27T12:27:11.987Z,2030
2019-06-27T12:28:21.715Z,2025
2019-06-27T12:29:31.696Z,1980
2019-06-27T12:30:41.716Z,2000
2019-06-27T12:31:54.180Z,2080
2019-06-27T12:33:04.210Z,2050
2019-06-27T12:34:16.911Z,2095
2019-06-27T12:35:26.907Z,2195
2019-06-27T12:36:36.907Z,2065
2019-06-27T12:37:49.325Z,2160
2019-06-27T12:38:59.042Z,2195
2019-06-27T12:40:08.780Z,2205
2019-06-27T12:41:18.767Z,2160
2019-06-27T12:42:41.991Z,2045
2019-06-27T12:43:51.974Z,2055
2019-06-27T12:45:01.688Z,2065
2019-06-27T12:46:11.394Z,2140
2019-06-27T12:47:21.357Z,2215
2019-06-27T12:48:31.070Z,2280
2019-06-27T12:50:09.860Z,2225
2019-06-27T12:51:19.886Z,2180
2019-06-27T12:52:29.863Z,2155
2019-06-27T12:53:39.839Z,2295
2019-06-27T12:54:49.906Z,2185
2019-06-27T12:55:59.733Z,2190
2019-06-27T12:57:09.702Z,2380
2019-06-27T12:58:19.455Z,2270
2019-06-27T12:59:29.447Z,2160
2019-06-27T13:00:39.546Z,2140
2019-06-27T13:01:49.529Z,2135
2019-06-27T13:02:59.596Z,2240
2019-06-27T13:04:25.605Z,2375
2019-06-27T13:05:35.583Z,2330
2019-06-27T13:06:45.295Z,2175
2019-06-27T13:07:55.293Z,2190
2019-06-27T13:09:05.320Z,2225
2019-06-27T13:10:15.379Z,2320
2019-06-27T13:11:25.404Z,2285
2019-06-27T13:12:35.367Z,2430
2019-06-27T13:13:45.085Z,2400
2019-06-27T13:14:55.144Z,2270
2019-06-27T13:16:05.164Z,2180
2019-06-27T13:17:15.135Z,2190
2019-06-27T13:18:24.856Z,2275
2019-06-27T13:19:34.588Z,2385
2019-06-27T13:21:01.351Z,2370
2019-06-27T13:22:11.328Z,2445
2019-06-27T13:23:21.444Z,2370
2019-06-27T13:24:31.475Z,2300
2019-06-27T13:25:43.906Z,2365
2019-06-27T13:26:53.709Z,2340
2019-06-27T13:28:03.730Z,2320
2019-06-27T13:29:13.456Z,2300
2019-06-27T13:30:23.421Z,2355
2019-06-27T13:31:33.407Z,2330
2019-06-27T13:32:43.414Z,2240
2019-06-27T13:33:53.456Z,2260
2019-06-27T13:35:03.460Z,2250
2019-06-27T13:36:13.278Z,2400
2019-06-27T13:37:23.488Z,2520
2019-06-27T13:38:33.484Z,2390
2019-06-27T13:39:43.276Z,2310
2019-06-27T13:40:53.026Z,2305
2019-06-27T13:42:02.517Z,2365
2019-06-27T13:43:12.245Z,2320
2019-06-27T13:44:21.961Z,2175
2019-06-27T13:45:35.982Z,2175
2019-06-27T13:46:45.766Z,2240
2019-06-27T13:47:55.808Z,2310
2019-06-27T13:49:05.516Z,2330
2019-06-27T13:50:15.218Z,2425
2019-06-27T13:51:24.929Z,2455
2019-06-27T13:52:34.689Z,2430
2019-06-27T13:53:44.653Z,2425
2019-06-27T13:54:54.626Z,2345
2019-06-27T13:56:04.726Z,2495
2019-06-27T13:57:14.814Z,2445
2019-06-27T13:58:24.512Z,2300
2019-06-27T13:59:34.232Z,2320
2019-06-27T14:00:44.307Z,2315
2019-06-27T14:01:54.281Z,2340
2019-06-27T14:03:04.039Z,2280
2019-06-27T14:04:14.013Z,2225
2019-06-27T14:05:23.991Z,2300
2019-06-27T14:06:33.971Z,2350
2019-06-27T14:07:43.995Z,2285
2019-06-27T14:08:53.764Z,2280
2019-06-27T14:10:07.197Z,2285
2019-06-27T14:11:16.914Z,2340
2019-06-27T14:12:26.647Z,2315
2019-06-27T14:13:36.444Z,2390
2019-06-27T14:15:03.571Z,2345
2019-06-27T14:16:15.352Z,2340
2019-06-27T14:17:25.354Z,2340
2019-06-27T14:18:35.126Z,2390
2019-06-27T14:19:45.124Z,2405
2019-06-27T14:20:55.096Z,2335
2019-06-27T14:22:08.213Z,2230
2019-06-27T14:23:18.210Z,2260
2019-06-27T14:24:28.230Z,2195
2019-06-27T14:25:37.955Z,2210
2019-06-27T14:26:47.661Z,2320
2019-06-27T14:27:57.120Z,2290
2019-06-27T14:29:07.096Z,2275
2019-06-27T14:30:17.075Z,2290
2019-06-27T14:31:27.020Z,2235
2019-06-27T14:32:36.758Z,2265
2019-06-27T14:33:46.496Z,2215
2019-06-27T14:35:10.607Z,2165
2019-06-27T14:36:23.772Z,2240
2019-06-27T14:37:33.510Z,2300
2019-06-27T14:38:43.498Z,2335
2019-06-27T14:39:56.371Z,2390
2019-06-27T14:41:06.092Z,2465
2019-06-27T14:42:15.829Z,2605
2019-06-27T14:43:25.592Z,2495
2019-06-27T14:44:35.324Z,2490
2019-06-27T14:45:45.345Z,2380
2019-06-27T14:46:55.389Z,2320
2019-06-27T14:48:05.223Z,2335
2019-06-27T14:49:15.220Z,2210
2019-06-27T14:50:24.924Z,2285
2019-06-27T14:51:34.635Z,2385
2019-06-27T14:52:44.848Z,2355
2019-06-27T14:53:54.556Z,2335
2019-06-27T14:55:04.545Z,2240
2019-06-27T14:56:14.294Z,2165
2019-06-27T14:57:23.766Z,2200
2019-06-27T14:58:35.999Z,2300
2019-06-27T14:59:45.480Z,2380
2019-06-27T15:00:55.198Z,2330
2019-06-27T15:02:05.215Z,2280
2019-06-27T15:03:15.189Z,2220
2019-06-27T15:04:24.957Z,2190
2019-06-27T15:05:42.518Z,2120
2019-06-27T15:06:52.572Z,2120
2019-06-27T15:08:02.340Z,2070
2019-06-27T15:09:12.370Z,2160
2019-06-27T15:10:22.457Z,2165
2019-06-27T15:11:32.205Z,2140
2019-06-27T15:13:00.621Z,2175
2019-06-27T15:14:10.392Z,2150
2019-06-27T15:15:20.139Z,2095
2019-06-27T15:16:30.186Z,2075
2019-06-27T15:17:40.195Z,2030
2019-06-27T15:18:50.159Z,2055
2019-06-27T15:20:01.933Z,2095
2019-06-27T15:21:12.009Z,2120
2019-06-27T15:22:22.093Z,2040
2019-06-27T15:23:34.034Z,2005
2019-06-27T15:24:44.038Z,1940
2019-06-27T15:25:54.012Z,1960
2019-06-27T15:27:04.002Z,1960
2019-06-27T15:28:13.737Z,1980
2019-06-27T15:29:23.457Z,2015
2019-06-27T15:30:33.414Z,2000
2019-06-27T15:31:43.163Z,1875
2019-06-27T15:32:52.921Z,1835
2019-06-27T15:34:02.668Z,1890
2019-06-27T15:35:12.683Z,1945
2019-06-27T15:36:22.456Z,2000
2019-06-27T15:37:32.188Z,1970
2019-06-27T15:38:42.165Z,1905
2019-06-27T15:39:51.926Z,1985
2019-06-27T15:41:05.281Z,1950
2019-06-27T15:42:15.007Z,1770
2019-06-27T15:43:24.998Z,1685
2019-06-27T15:44:34.709Z,1680
2019-06-27T15:45:44.735Z,1655
2019-06-27T15:46:58.853Z,1705
2019-06-27T15:48:08.969Z,1810
2019-06-27T15:49:18.967Z,1820
2019-06-27T15:50:28.492Z,1770
2019-06-27T15:51:38.213Z,1710
2019-06-27T15:52:48.193Z,1720
2019-06-27T15:53:58.155Z,1720
2019-06-27T15:55:11.727Z,1695
2019-06-27T15:56:22.053Z,1630
2019-06-27T15:57:32.036Z,1595
2019-06-27T15:58:42.026Z,1615
2019-06-27T15:59:52.037Z,1625
2019-06-27T16:01:01.911Z,1595
2019-06-27T16:02:11.765Z,1545
2019-06-27T16:03:21.589Z,1540
2019-06-27T16:04:42.024Z,1515
2019-06-27T16:06:04.920Z,1530
2019-06-27T16:07:18.104Z,1505
2019-06-27T16:08:28.082Z,1495
2019-06-27T16:09:38.060Z,1515
2019-06-27T16:10:47.904Z,1480